sensor_id;sensor_type;location;lat;lon;timestamp;pressure;altitude;pressure_sealevel;temperature;humidity
16777;BME280;8505;49.456;8.164;2023-03-16T00:00:56;100236.69;;;0.05;91.25
16777;BME280;8505;49.456;8.164;2023-03-16T00:03:23;100238.00;;;-0.03;91.64
16777;BME280;8505;49.456;8.164;2023-03-16T00:06:21;100243.28;;;-0.04;91.74
16777;BME280;8505;49.456;8.164;2023-03-16T00:08:52;100234.38;;;-0.14;92.02
16777;BME280;8505;49.456;8.164;2023-03-16T00:11:24;100237.41;;;-0.22;92.40
16777;BME280;8505;49.456;8.164;2023-03-16T00:13:52;100231.44;;;-0.24;92.36
16777;BME280;8505;49.456;8.164;2023-03-16T00:16:20;100233.13;;;-0.23;92.68
16777;BME280;8505;49.456;8.164;2023-03-16T00:18:47;100226.53;;;-0.28;92.42
16777;BME280;8505;49.456;8.164;2023-03-16T00:21:15;100245.06;;;-0.19;92.37
16777;BME280;8505;49.456;8.164;2023-03-16T00:23:43;100242.97;;;-0.28;92.31
16777;BME280;8505;49.456;8.164;2023-03-16T00:26:12;100253.00;;;-0.36;92.88
16777;BME280;8505;49.456;8.164;2023-03-16T00:28:40;100245.03;;;-0.33;92.83
16777;BME280;8505;49.456;8.164;2023-03-16T00:31:10;100243.19;;;-0.31;92.85
16777;BME280;8505;49.456;8.164;2023-03-16T00:33:40;100242.50;;;-0.34;92.94
16777;BME280;8505;49.456;8.164;2023-03-16T00:36:10;100234.22;;;-0.41;93.00
16777;BME280;8505;49.456;8.164;2023-03-16T00:38:40;100244.63;;;-0.41;93.21
16777;BME280;8505;49.456;8.164;2023-03-16T00:41:11;100241.25;;;-0.43;93.17
16777;BME280;8505;49.456;8.164;2023-03-16T00:43:42;100242.69;;;-0.37;93.05
16777;BME280;8505;49.456;8.164;2023-03-16T00:46:12;100243.69;;;-0.40;92.60
16777;BME280;8505;49.456;8.164;2023-03-16T00:48:42;100241.63;;;-0.49;93.28
16777;BME280;8505;49.456;8.164;2023-03-16T00:51:11;100242.31;;;-0.46;93.54
16777;BME280;8505;49.456;8.164;2023-03-16T00:53:41;100229.00;;;-0.41;93.17
16777;BME280;8505;49.456;8.164;2023-03-16T00:56:10;100232.53;;;-0.42;93.20
16777;BME280;8505;49.456;8.164;2023-03-16T00:58:41;100224.56;;;-0.39;93.06
16777;BME280;8505;49.456;8.164;2023-03-16T01:01:12;100224.50;;;-0.37;93.16
16777;BME280;8505;49.456;8.164;2023-03-16T01:03:40;100221.66;;;-0.49;93.17
16777;BME280;8505;49.456;8.164;2023-03-16T01:06:10;100223.03;;;-0.57;93.54
16777;BME280;8505;49.456;8.164;2023-03-16T01:08:39;100212.66;;;-0.57;93.66
16777;BME280;8505;49.456;8.164;2023-03-16T01:11:09;100214.88;;;-0.51;93.51
16777;BME280;8505;49.456;8.164;2023-03-16T01:13:38;100209.28;;;-0.59;93.78
16777;BME280;8505;49.456;8.164;2023-03-16T01:16:08;100209.78;;;-0.53;93.66
16777;BME280;8505;49.456;8.164;2023-03-16T01:18:36;100206.16;;;-0.50;93.80
16777;BME280;8505;49.456;8.164;2023-03-16T01:21:06;100211.38;;;-0.50;93.34
16777;BME280;8505;49.456;8.164;2023-03-16T01:23:35;100214.97;;;-0.53;93.74
16777;BME280;8505;49.456;8.164;2023-03-16T01:26:04;100223.03;;;-0.57;94.03
16777;BME280;8505;49.456;8.164;2023-03-16T01:28:34;100210.88;;;-0.57;93.60
16777;BME280;8505;49.456;8.164;2023-03-16T01:31:08;100212.81;;;-0.60;93.61
16777;BME280;8505;49.456;8.164;2023-03-16T01:33:37;100212.84;;;-0.46;93.66
16777;BME280;8505;49.456;8.164;2023-03-16T01:36:07;100214.97;;;-0.53;93.57
16777;BME280;8505;49.456;8.164;2023-03-16T01:38:36;100212.00;;;-0.47;93.45
16777;BME280;8505;49.456;8.164;2023-03-16T01:41:04;100201.41;;;-0.58;93.44
16777;BME280;8505;49.456;8.164;2023-03-16T01:43:34;100205.75;;;-0.58;93.45
16777;BME280;8505;49.456;8.164;2023-03-16T01:46:23;100197.97;;;-0.58;93.56
16777;BME280;8505;49.456;8.164;2023-03-16T01:48:59;100208.63;;;-0.63;94.03
16777;BME280;8505;49.456;8.164;2023-03-16T01:51:34;100196.47;;;-0.62;93.85
16777;BME280;8505;49.456;8.164;2023-03-16T01:54:06;100193.41;;;-0.69;93.88
16777;BME280;8505;49.456;8.164;2023-03-16T01:56:43;100197.56;;;-0.66;93.96
16777;BME280;8505;49.456;8.164;2023-03-16T01:59:15;100189.75;;;-0.66;93.78
16777;BME280;8505;49.456;8.164;2023-03-16T02:01:47;100190.53;;;-0.64;93.50
16777;BME280;8505;49.456;8.164;2023-03-16T02:04:24;100188.13;;;-0.53;93.53
16777;BME280;8505;49.456;8.164;2023-03-16T02:06:54;100187.47;;;-0.57;93.24
16777;BME280;8505;49.456;8.164;2023-03-16T02:09:24;100189.53;;;-0.62;93.68
16777;BME280;8505;49.456;8.164;2023-03-16T02:11:52;100180.13;;;-0.64;93.36
16777;BME280;8505;49.456;8.164;2023-03-16T02:14:20;100181.97;;;-0.66;93.20
16777;BME280;8505;49.456;8.164;2023-03-16T02:16:52;100179.38;;;-0.66;93.46
16777;BME280;8505;49.456;8.164;2023-03-16T02:19:29;100168.03;;;-0.65;93.56
16777;BME280;8505;49.456;8.164;2023-03-16T02:22:01;100172.31;;;-0.64;93.30
16777;BME280;8505;49.456;8.164;2023-03-16T02:24:30;100169.72;;;-0.64;93.17
16777;BME280;8505;49.456;8.164;2023-03-16T02:26:59;100171.31;;;-0.62;93.07
16777;BME280;8505;49.456;8.164;2023-03-16T02:29:48;100165.75;;;-0.56;92.95
16777;BME280;8505;49.456;8.164;2023-03-16T02:32:20;100149.56;;;-0.75;93.44
16777;BME280;8505;49.456;8.164;2023-03-16T02:34:49;100152.25;;;-0.76;93.50
16777;BME280;8505;49.456;8.164;2023-03-16T02:37:17;100149.09;;;-0.67;93.91
16777;BME280;8505;49.456;8.164;2023-03-16T02:39:45;100142.75;;;-0.77;93.90
16777;BME280;8505;49.456;8.164;2023-03-16T02:42:16;100145.75;;;-0.69;93.79
16777;BME280;8505;49.456;8.164;2023-03-16T02:44:47;100159.69;;;-0.70;93.69
16777;BME280;8505;49.456;8.164;2023-03-16T02:47:24;100154.22;;;-0.52;93.49
16777;BME280;8505;49.456;8.164;2023-03-16T02:49:53;100162.88;;;-0.51;92.41
16777;BME280;8505;49.456;8.164;2023-03-16T02:52:21;100155.59;;;-0.60;93.08
16777;BME280;8505;49.456;8.164;2023-03-16T02:54:49;100153.75;;;-0.58;93.05
16777;BME280;8505;49.456;8.164;2023-03-16T02:57:16;100144.00;;;-0.55;93.29
16777;BME280;8505;49.456;8.164;2023-03-16T02:59:45;100136.75;;;-0.35;92.74
16777;BME280;8505;49.456;8.164;2023-03-16T03:02:13;100140.59;;;-0.27;92.58
16777;BME280;8505;49.456;8.164;2023-03-16T03:04:42;100127.50;;;-0.25;91.87
16777;BME280;8505;49.456;8.164;2023-03-16T03:07:12;100131.56;;;-0.35;91.80
16777;BME280;8505;49.456;8.164;2023-03-16T03:09:40;100133.63;;;-0.41;92.00
16777;BME280;8505;49.456;8.164;2023-03-16T03:12:09;100123.78;;;-0.50;92.23
16777;BME280;8505;49.456;8.164;2023-03-16T03:14:37;100125.44;;;-0.49;92.27
16777;BME280;8505;49.456;8.164;2023-03-16T03:17:08;100124.50;;;-0.48;92.35
16777;BME280;8505;49.456;8.164;2023-03-16T03:19:39;100126.66;;;-0.40;91.92
16777;BME280;8505;49.456;8.164;2023-03-16T03:22:07;100130.72;;;-0.36;92.09
16777;BME280;8505;49.456;8.164;2023-03-16T03:24:35;100129.63;;;-0.46;91.93
16777;BME280;8505;49.456;8.164;2023-03-16T03:27:03;100128.88;;;-0.48;92.41
16777;BME280;8505;49.456;8.164;2023-03-16T03:29:31;100132.22;;;-0.46;92.25
16777;BME280;8505;49.456;8.164;2023-03-16T03:32:00;100130.16;;;-0.41;92.27
16777;BME280;8505;49.456;8.164;2023-03-16T03:34:30;100126.28;;;-0.34;92.13
16777;BME280;8505;49.456;8.164;2023-03-16T03:36:58;100117.00;;;-0.38;91.90
16777;BME280;8505;49.456;8.164;2023-03-16T03:39:26;100118.38;;;-0.32;92.12
16777;BME280;8505;49.456;8.164;2023-03-16T03:41:54;100118.22;;;-0.44;92.44
16777;BME280;8505;49.456;8.164;2023-03-16T03:44:22;100121.06;;;-0.48;92.69
16777;BME280;8505;49.456;8.164;2023-03-16T03:46:51;100119.22;;;-0.32;92.68
16777;BME280;8505;49.456;8.164;2023-03-16T03:49:19;100109.81;;;-0.34;92.53
16777;BME280;8505;49.456;8.164;2023-03-16T03:51:48;100115.88;;;-0.34;92.54
16777;BME280;8505;49.456;8.164;2023-03-16T03:54:15;100114.94;;;-0.19;92.50
16777;BME280;8505;49.456;8.164;2023-03-16T03:56:43;100113.63;;;-0.12;92.38
16777;BME280;8505;49.456;8.164;2023-03-16T03:59:11;100114.91;;;-0.05;92.48
16777;BME280;8505;49.456;8.164;2023-03-16T04:01:39;100123.25;;;0.00;91.47
16777;BME280;8505;49.456;8.164;2023-03-16T04:04:07;100120.50;;;0.04;91.47
16777;BME280;8505;49.456;8.164;2023-03-16T04:06:34;100118.50;;;0.07;90.96
16777;BME280;8505;49.456;8.164;2023-03-16T04:09:04;100116.22;;;-0.12;91.07
16777;BME280;8505;49.456;8.164;2023-03-16T04:11:32;100120.59;;;-0.12;91.03
16777;BME280;8505;49.456;8.164;2023-03-16T04:14:00;100115.88;;;-0.20;90.85
16777;BME280;8505;49.456;8.164;2023-03-16T04:16:27;100115.84;;;-0.06;91.56
16777;BME280;8505;49.456;8.164;2023-03-16T04:18:55;100122.06;;;0.06;91.72
16777;BME280;8505;49.456;8.164;2023-03-16T04:21:24;100129.38;;;0.14;91.52
16777;BME280;8505;49.456;8.164;2023-03-16T04:23:51;100138.09;;;0.27;91.96
16777;BME280;8505;49.456;8.164;2023-03-16T04:26:21;100125.97;;;0.40;90.91
16777;BME280;8505;49.456;8.164;2023-03-16T04:28:51;100115.66;;;0.38;90.11
16777;BME280;8505;49.456;8.164;2023-03-16T04:31:19;100109.38;;;0.28;90.30
16777;BME280;8505;49.456;8.164;2023-03-16T04:33:47;100118.59;;;0.20;89.97
16777;BME280;8505;49.456;8.164;2023-03-16T04:36:15;100111.22;;;0.26;89.87
16777;BME280;8505;49.456;8.164;2023-03-16T04:38:42;100114.13;;;0.22;89.71
16777;BME280;8505;49.456;8.164;2023-03-16T04:41:10;100113.13;;;0.24;90.15
16777;BME280;8505;49.456;8.164;2023-03-16T04:43:39;100111.63;;;0.20;90.64
16777;BME280;8505;49.456;8.164;2023-03-16T04:46:09;100103.28;;;0.42;89.93
16777;BME280;8505;49.456;8.164;2023-03-16T04:48:37;100106.06;;;0.39;90.38
16777;BME280;8505;49.456;8.164;2023-03-16T04:51:05;100111.13;;;0.28;91.49
16777;BME280;8505;49.456;8.164;2023-03-16T04:53:33;100105.94;;;0.28;89.97
16777;BME280;8505;49.456;8.164;2023-03-16T04:56:00;100103.03;;;0.59;90.33
16777;BME280;8505;49.456;8.164;2023-03-16T04:58:29;100105.38;;;0.76;89.27
16777;BME280;8505;49.456;8.164;2023-03-16T05:00:58;100106.44;;;0.47;88.70
16777;BME280;8505;49.456;8.164;2023-03-16T05:03:26;100097.88;;;0.72;88.30
16777;BME280;8505;49.456;8.164;2023-03-16T05:05:54;100090.88;;;0.46;89.49
16777;BME280;8505;49.456;8.164;2023-03-16T05:08:22;100097.41;;;0.65;89.20
16777;BME280;8505;49.456;8.164;2023-03-16T05:10:49;100090.66;;;0.75;89.63
16777;BME280;8505;49.456;8.164;2023-03-16T05:13:17;100088.34;;;0.58;87.80
16777;BME280;8505;49.456;8.164;2023-03-16T05:15:45;100089.13;;;0.46;89.39
16777;BME280;8505;49.456;8.164;2023-03-16T05:18:14;100088.16;;;0.34;90.81
16777;BME280;8505;49.456;8.164;2023-03-16T05:20:42;100093.63;;;0.84;88.69
16777;BME280;8505;49.456;8.164;2023-03-16T05:23:10;100092.13;;;0.67;89.90
16777;BME280;8505;49.456;8.164;2023-03-16T05:25:38;100090.09;;;0.58;89.85
16777;BME280;8505;49.456;8.164;2023-03-16T05:28:06;100080.88;;;0.79;89.87
16777;BME280;8505;49.456;8.164;2023-03-16T05:30:34;100090.47;;;0.78;89.05
16777;BME280;8505;49.456;8.164;2023-03-16T05:33:03;100085.19;;;0.80;89.31
16777;BME280;8505;49.456;8.164;2023-03-16T05:35:32;100078.41;;;0.90;88.82
16777;BME280;8505;49.456;8.164;2023-03-16T05:38:00;100085.81;;;0.96;88.55
16777;BME280;8505;49.456;8.164;2023-03-16T05:40:28;100080.56;;;0.71;89.08
16777;BME280;8505;49.456;8.164;2023-03-16T05:42:56;100081.53;;;0.95;88.67
16777;BME280;8505;49.456;8.164;2023-03-16T05:45:25;100076.19;;;0.84;87.99
16777;BME280;8505;49.456;8.164;2023-03-16T05:47:53;100077.34;;;0.93;88.68
16777;BME280;8505;49.456;8.164;2023-03-16T05:50:21;100084.22;;;0.94;87.72
16777;BME280;8505;49.456;8.164;2023-03-16T05:52:51;100079.38;;;1.14;87.12
16777;BME280;8505;49.456;8.164;2023-03-16T05:55:19;100079.28;;;1.41;85.22
16777;BME280;8505;49.456;8.164;2023-03-16T05:57:47;100076.97;;;1.49;85.31
16777;BME280;8505;49.456;8.164;2023-03-16T06:00:16;100070.19;;;1.34;85.72
16777;BME280;8505;49.456;8.164;2023-03-16T06:02:46;100075.81;;;1.53;85.57
16777;BME280;8505;49.456;8.164;2023-03-16T06:05:14;100069.84;;;1.64;84.82
16777;BME280;8505;49.456;8.164;2023-03-16T06:07:42;100066.22;;;1.67;85.13
16777;BME280;8505;49.456;8.164;2023-03-16T06:10:12;100066.50;;;1.62;84.99
16777;BME280;8505;49.456;8.164;2023-03-16T06:12:40;100066.59;;;1.60;85.40
16777;BME280;8505;49.456;8.164;2023-03-16T06:15:08;100064.13;;;1.59;86.00
16777;BME280;8505;49.456;8.164;2023-03-16T06:17:37;100064.97;;;1.21;86.49
16777;BME280;8505;49.456;8.164;2023-03-16T06:20:07;100064.22;;;1.70;86.18
16777;BME280;8505;49.456;8.164;2023-03-16T06:22:36;100070.38;;;1.56;86.08
16777;BME280;8505;49.456;8.164;2023-03-16T06:25:05;100068.66;;;1.81;86.53
16777;BME280;8505;49.456;8.164;2023-03-16T06:27:36;100064.22;;;2.30;84.59
16777;BME280;8505;49.456;8.164;2023-03-16T06:30:07;100061.22;;;2.71;83.51
16777;BME280;8505;49.456;8.164;2023-03-16T06:32:36;100070.53;;;2.52;82.77
16777;BME280;8505;49.456;8.164;2023-03-16T06:35:08;100068.88;;;2.97;81.34
16777;BME280;8505;49.456;8.164;2023-03-16T06:37:36;100070.09;;;3.15;80.57
16777;BME280;8505;49.456;8.164;2023-03-16T06:40:05;100071.47;;;3.32;80.13
16777;BME280;8505;49.456;8.164;2023-03-16T06:42:34;100063.00;;;3.28;80.42
16777;BME280;8505;49.456;8.164;2023-03-16T06:45:03;100068.84;;;3.32;80.15
16777;BME280;8505;49.456;8.164;2023-03-16T06:47:31;100068.66;;;3.00;80.33
16777;BME280;8505;49.456;8.164;2023-03-16T06:49:59;100062.88;;;3.07;81.02
16777;BME280;8505;49.456;8.164;2023-03-16T06:52:27;100069.50;;;3.00;81.32
16777;BME280;8505;49.456;8.164;2023-03-16T06:54:54;100064.28;;;3.11;81.87
16777;BME280;8505;49.456;8.164;2023-03-16T06:57:23;100067.38;;;3.05;81.36
16777;BME280;8505;49.456;8.164;2023-03-16T06:59:51;100065.94;;;3.01;81.24
16777;BME280;8505;49.456;8.164;2023-03-16T07:02:20;100062.56;;;2.88;80.27
16777;BME280;8505;49.456;8.164;2023-03-16T07:04:49;100059.59;;;2.81;80.61
16777;BME280;8505;49.456;8.164;2023-03-16T07:07:17;100066.56;;;2.70;81.61
16777;BME280;8505;49.456;8.164;2023-03-16T07:09:44;100066.28;;;2.62;81.29
16777;BME280;8505;49.456;8.164;2023-03-16T07:12:12;100071.63;;;2.60;81.78
16777;BME280;8505;49.456;8.164;2023-03-16T07:14:40;100069.38;;;2.67;82.52
16777;BME280;8505;49.456;8.164;2023-03-16T07:17:08;100065.63;;;2.71;82.34
16777;BME280;8505;49.456;8.164;2023-03-16T07:19:38;100067.41;;;2.70;82.21
16777;BME280;8505;49.456;8.164;2023-03-16T07:22:05;100060.78;;;2.77;82.39
16777;BME280;8505;49.456;8.164;2023-03-16T07:24:33;100065.72;;;2.69;83.05
16777;BME280;8505;49.456;8.164;2023-03-16T07:27:01;100062.41;;;2.78;82.59
16777;BME280;8505;49.456;8.164;2023-03-16T07:29:29;100077.69;;;2.61;82.55
16777;BME280;8505;49.456;8.164;2023-03-16T07:31:56;100078.19;;;3.01;84.01
16777;BME280;8505;49.456;8.164;2023-03-16T07:34:24;100068.63;;;2.77;82.70
16777;BME280;8505;49.456;8.164;2023-03-16T07:36:53;100077.31;;;2.89;82.75
16777;BME280;8505;49.456;8.164;2023-03-16T07:39:21;100069.47;;;2.89;83.25
16777;BME280;8505;49.456;8.164;2023-03-16T07:41:49;100078.00;;;2.80;82.97
16777;BME280;8505;49.456;8.164;2023-03-16T07:44:16;100077.09;;;3.03;83.53
16777;BME280;8505;49.456;8.164;2023-03-16T07:46:44;100080.09;;;3.21;82.14
16777;BME280;8505;49.456;8.164;2023-03-16T07:49:12;100075.88;;;3.31;82.89
16777;BME280;8505;49.456;8.164;2023-03-16T07:51:42;100072.94;;;3.58;81.30
16777;BME280;8505;49.456;8.164;2023-03-16T07:54:11;100067.91;;;3.77;80.49
16777;BME280;8505;49.456;8.164;2023-03-16T07:56:39;100067.38;;;4.17;78.75
16777;BME280;8505;49.456;8.164;2023-03-16T07:59:14;100067.72;;;4.87;76.15
16777;BME280;8505;49.456;8.164;2023-03-16T08:01:45;100063.19;;;5.31;74.06
16777;BME280;8505;49.456;8.164;2023-03-16T08:04:16;100063.22;;;5.40;72.12
16777;BME280;8505;49.456;8.164;2023-03-16T08:06:44;100071.44;;;5.56;71.63
16777;BME280;8505;49.456;8.164;2023-03-16T08:09:14;100068.28;;;5.32;71.30
16777;BME280;8505;49.456;8.164;2023-03-16T08:11:42;100068.38;;;5.51;70.35
16777;BME280;8505;49.456;8.164;2023-03-16T08:14:11;100074.97;;;6.06;68.82
16777;BME280;8505;49.456;8.164;2023-03-16T08:16:39;100076.53;;;6.19;69.19
16777;BME280;8505;49.456;8.164;2023-03-16T08:19:06;100071.72;;;6.33;67.30
16777;BME280;8505;49.456;8.164;2023-03-16T08:21:34;100080.31;;;5.86;68.33
16777;BME280;8505;49.456;8.164;2023-03-16T08:24:24;100064.56;;;6.83;66.28
16777;BME280;8505;49.456;8.164;2023-03-16T08:26:52;100070.28;;;7.45;64.24
16777;BME280;8505;49.456;8.164;2023-03-16T08:29:20;100070.50;;;7.14;66.37
16777;BME280;8505;49.456;8.164;2023-03-16T08:31:48;100065.75;;;7.27;64.98
16777;BME280;8505;49.456;8.164;2023-03-16T08:34:16;100056.13;;;7.46;65.58
16777;BME280;8505;49.456;8.164;2023-03-16T08:36:44;100047.34;;;7.55;63.37
16777;BME280;8505;49.456;8.164;2023-03-16T08:39:11;100048.25;;;7.36;64.25
16777;BME280;8505;49.456;8.164;2023-03-16T08:41:42;100051.09;;;6.86;65.50
16777;BME280;8505;49.456;8.164;2023-03-16T08:44:11;100047.13;;;7.39;65.13
16777;BME280;8505;49.456;8.164;2023-03-16T08:46:39;100053.53;;;8.00;62.42
16777;BME280;8505;49.456;8.164;2023-03-16T08:49:07;100051.59;;;8.47;61.58
16777;BME280;8505;49.456;8.164;2023-03-16T08:51:36;100063.78;;;7.76;62.38
16777;BME280;8505;49.456;8.164;2023-03-16T08:54:04;100047.00;;;8.32;62.06
16777;BME280;8505;49.456;8.164;2023-03-16T08:56:32;100037.94;;;8.52;61.13
16777;BME280;8505;49.456;8.164;2023-03-16T08:59:02;100030.72;;;7.82;62.21
16777;BME280;8505;49.456;8.164;2023-03-16T09:01:29;100025.28;;;8.10;61.89
16777;BME280;8505;49.456;8.164;2023-03-16T09:03:57;100036.53;;;7.85;62.29
16777;BME280;8505;49.456;8.164;2023-03-16T09:06:26;100042.16;;;8.00;62.42
16777;BME280;8505;49.456;8.164;2023-03-16T09:08:54;100037.50;;;7.57;63.90
16777;BME280;8505;49.456;8.164;2023-03-16T09:11:22;100043.81;;;8.01;62.61
16777;BME280;8505;49.456;8.164;2023-03-16T09:13:53;100045.19;;;8.05;62.60
16777;BME280;8505;49.456;8.164;2023-03-16T09:16:22;100033.69;;;8.77;60.91
16777;BME280;8505;49.456;8.164;2023-03-16T09:18:51;100034.47;;;8.34;61.43
16777;BME280;8505;49.456;8.164;2023-03-16T09:21:19;100023.06;;;7.88;63.87
16777;BME280;8505;49.456;8.164;2023-03-16T09:23:46;100018.94;;;8.31;63.31
16777;BME280;8505;49.456;8.164;2023-03-16T09:26:14;100023.75;;;8.35;62.24
16777;BME280;8505;49.456;8.164;2023-03-16T09:28:42;100021.81;;;8.55;61.51
16777;BME280;8505;49.456;8.164;2023-03-16T09:31:15;100018.28;;;8.90;60.30
16777;BME280;8505;49.456;8.164;2023-03-16T09:33:45;100016.31;;;8.48;61.58
16777;BME280;8505;49.456;8.164;2023-03-16T09:36:14;100010.34;;;8.82;61.35
16777;BME280;8505;49.456;8.164;2023-03-16T09:38:43;100016.78;;;9.31;58.71
16777;BME280;8505;49.456;8.164;2023-03-16T09:41:25;100019.66;;;9.80;57.81
16777;BME280;8505;49.456;8.164;2023-03-16T09:44:02;100023.38;;;9.09;59.21
16777;BME280;8505;49.456;8.164;2023-03-16T09:46:35;100025.19;;;9.09;58.90
16777;BME280;8505;49.456;8.164;2023-03-16T09:49:08;100026.66;;;9.63;57.77
16777;BME280;8505;49.456;8.164;2023-03-16T09:51:43;100020.19;;;9.91;57.44
16777;BME280;8505;49.456;8.164;2023-03-16T09:54:21;100012.53;;;9.46;58.79
16777;BME280;8505;49.456;8.164;2023-03-16T09:56:53;100005.66;;;9.53;58.98
16777;BME280;8505;49.456;8.164;2023-03-16T09:59:23;100012.09;;;10.43;55.79
16777;BME280;8505;49.456;8.164;2023-03-16T10:02:02;100008.06;;;10.31;55.12
16777;BME280;8505;49.456;8.164;2023-03-16T10:04:39;100004.53;;;9.64;57.89
16777;BME280;8505;49.456;8.164;2023-03-16T10:07:21;99997.81;;;9.78;57.10
16777;BME280;8505;49.456;8.164;2023-03-16T10:09:55;100005.28;;;10.89;54.36
16777;BME280;8505;49.456;8.164;2023-03-16T10:12:29;100001.97;;;11.03;55.11
16777;BME280;8505;49.456;8.164;2023-03-16T10:15:04;99999.44;;;11.81;51.35
16777;BME280;8505;49.456;8.164;2023-03-16T10:17:37;99993.22;;;11.58;53.06
16777;BME280;8505;49.456;8.164;2023-03-16T10:20:14;99972.09;;;11.81;51.52
16777;BME280;8505;49.456;8.164;2023-03-16T10:22:44;99980.47;;;10.98;53.22
16777;BME280;8505;49.456;8.164;2023-03-16T10:25:18;99988.03;;;11.17;53.51
16777;BME280;8505;49.456;8.164;2023-03-16T10:27:48;99995.72;;;10.72;55.08
16777;BME280;8505;49.456;8.164;2023-03-16T10:30:21;99994.63;;;11.29;54.41
16777;BME280;8505;49.456;8.164;2023-03-16T10:32:50;99990.66;;;11.25;53.86
16777;BME280;8505;49.456;8.164;2023-03-16T10:35:30;99980.50;;;10.74;54.19
16777;BME280;8505;49.456;8.164;2023-03-16T10:38:01;99981.78;;;10.37;56.27
16777;BME280;8505;49.456;8.164;2023-03-16T10:40:30;99985.38;;;10.12;56.58
16777;BME280;8505;49.456;8.164;2023-03-16T10:43:05;99980.16;;;10.36;56.27
16777;BME280;8505;49.456;8.164;2023-03-16T10:45:35;99980.75;;;11.11;54.79
16777;BME280;8505;49.456;8.164;2023-03-16T10:48:07;99984.13;;;10.65;55.09
16777;BME280;8505;49.456;8.164;2023-03-16T10:50:49;99975.81;;;10.68;56.07
16777;BME280;8505;49.456;8.164;2023-03-16T10:53:20;99972.00;;;10.86;54.95
16777;BME280;8505;49.456;8.164;2023-03-16T10:55:49;99971.53;;;10.34;55.56
16777;BME280;8505;49.456;8.164;2023-03-16T10:58:23;99982.25;;;10.25;56.96
16777;BME280;8505;49.456;8.164;2023-03-16T11:00:56;99988.06;;;11.09;54.26
16777;BME280;8505;49.456;8.164;2023-03-16T11:03:26;99980.81;;;11.42;52.92
16777;BME280;8505;49.456;8.164;2023-03-16T11:06:00;99976.94;;;11.22;52.41
16777;BME280;8505;49.456;8.164;2023-03-16T11:08:31;99978.31;;;11.57;51.71
16777;BME280;8505;49.456;8.164;2023-03-16T11:11:07;99969.38;;;11.50;51.31
16777;BME280;8505;49.456;8.164;2023-03-16T11:13:42;99969.28;;;11.82;50.67
16777;BME280;8505;49.456;8.164;2023-03-16T11:16:20;99962.88;;;11.99;50.55
16777;BME280;8505;49.456;8.164;2023-03-16T11:18:51;99956.66;;;11.37;52.78
16777;BME280;8505;49.456;8.164;2023-03-16T11:21:29;99954.31;;;11.42;52.84
16777;BME280;8505;49.456;8.164;2023-03-16T11:24:03;99947.47;;;12.63;50.97
16777;BME280;8505;49.456;8.164;2023-03-16T11:26:34;99958.97;;;12.10;50.86
16777;BME280;8505;49.456;8.164;2023-03-16T11:29:06;99951.16;;;12.39;51.41
16777;BME280;8505;49.456;8.164;2023-03-16T11:31:40;99947.94;;;12.67;50.13
16777;BME280;8505;49.456;8.164;2023-03-16T11:34:14;99942.50;;;12.97;49.38
16777;BME280;8505;49.456;8.164;2023-03-16T11:36:49;99941.44;;;14.23;47.27
16777;BME280;8505;49.456;8.164;2023-03-16T11:39:28;99940.22;;;14.04;46.72
16777;BME280;8505;49.456;8.164;2023-03-16T11:42:08;99926.91;;;14.04;46.54
16777;BME280;8505;49.456;8.164;2023-03-16T11:44:43;99922.00;;;14.07;46.43
16777;BME280;8505;49.456;8.164;2023-03-16T11:47:48;99920.59;;;14.75;44.92
16777;BME280;8505;49.456;8.164;2023-03-16T11:50:20;99919.41;;;15.12;44.71
16777;BME280;8505;49.456;8.164;2023-03-16T11:52:57;99911.72;;;14.40;45.46
16777;BME280;8505;49.456;8.164;2023-03-16T11:55:34;99902.50;;;14.22;44.04
16777;BME280;8505;49.456;8.164;2023-03-16T11:58:20;99904.06;;;14.16;44.29
16777;BME280;8505;49.456;8.164;2023-03-16T12:01:00;99906.56;;;14.39;45.54
16777;BME280;8505;49.456;8.164;2023-03-16T12:03:43;99909.16;;;14.53;44.75
16777;BME280;8505;49.456;8.164;2023-03-16T12:06:27;99905.72;;;14.60;43.90
16777;BME280;8505;49.456;8.164;2023-03-16T12:09:18;99912.31;;;15.26;43.24
16777;BME280;8505;49.456;8.164;2023-03-16T12:11:53;99898.13;;;15.60;41.65
16777;BME280;8505;49.456;8.164;2023-03-16T12:14:25;99904.84;;;14.10;44.88
16777;BME280;8505;49.456;8.164;2023-03-16T12:16:58;99898.13;;;14.84;44.16
16777;BME280;8505;49.456;8.164;2023-03-16T12:19:36;99887.66;;;14.12;45.06
16777;BME280;8505;49.456;8.164;2023-03-16T12:22:15;99888.13;;;14.65;43.99
16777;BME280;8505;49.456;8.164;2023-03-16T12:24:45;99893.06;;;15.30;41.22
16777;BME280;8505;49.456;8.164;2023-03-16T12:27:15;99878.28;;;15.34;41.40
16777;BME280;8505;49.456;8.164;2023-03-16T12:29:52;99870.25;;;15.75;41.16
16777;BME280;8505;49.456;8.164;2023-03-16T12:32:31;99867.25;;;15.03;42.16
16777;BME280;8505;49.456;8.164;2023-03-16T12:35:15;99858.91;;;15.19;42.17
16777;BME280;8505;49.456;8.164;2023-03-16T12:37:51;99849.44;;;15.10;43.14
16777;BME280;8505;49.456;8.164;2023-03-16T12:40:31;99856.50;;;15.24;41.13
16777;BME280;8505;49.456;8.164;2023-03-16T12:43:16;99851.50;;;14.74;41.88
16777;BME280;8505;49.456;8.164;2023-03-16T12:45:50;99852.81;;;15.32;42.25
16777;BME280;8505;49.456;8.164;2023-03-16T12:48:26;99848.53;;;14.13;44.06
16777;BME280;8505;49.456;8.164;2023-03-16T12:50:57;99858.63;;;14.17;44.05
16777;BME280;8505;49.456;8.164;2023-03-16T12:53:43;99850.38;;;14.62;44.12
16777;BME280;8505;49.456;8.164;2023-03-16T12:56:15;99842.72;;;14.80;42.26
16777;BME280;8505;49.456;8.164;2023-03-16T12:58:46;99841.66;;;14.46;43.03
16777;BME280;8505;49.456;8.164;2023-03-16T13:01:16;99839.44;;;14.84;41.95
16777;BME280;8505;49.456;8.164;2023-03-16T13:03:46;99825.44;;;14.41;43.34
16777;BME280;8505;49.456;8.164;2023-03-16T13:06:18;99815.78;;;14.40;43.74
16777;BME280;8505;49.456;8.164;2023-03-16T13:08:50;99816.78;;;14.67;43.04
16777;BME280;8505;49.456;8.164;2023-03-16T13:11:20;99812.63;;;14.30;44.73
16777;BME280;8505;49.456;8.164;2023-03-16T13:13:51;99814.41;;;14.79;42.87
16777;BME280;8505;49.456;8.164;2023-03-16T13:16:26;99808.25;;;15.26;43.21
16777;BME280;8505;49.456;8.164;2023-03-16T13:18:54;99810.03;;;15.12;42.77
16777;BME280;8505;49.456;8.164;2023-03-16T13:21:34;99807.94;;;14.60;43.39
16777;BME280;8505;49.456;8.164;2023-03-16T13:24:21;99807.69;;;15.44;41.77
16777;BME280;8505;49.456;8.164;2023-03-16T13:26:57;99795.09;;;15.85;41.98